Pilgrim, Kentucky
Current Conditions -  °F | °C
As of 3:35 PM on Saturday 25 Oct 2014 (Local Time) from KSJS Reporting Station
Overcast Overcast  
Wind Chill: 66°   Ceiling: 3000
Heat Index: 66°   Visibility: 10mi
Dew Point: 50°   Wind: 6mph
Humidity: 57%   Direction: 220°SW
Pressure: 29.98"   Gusts: NA
Location:  37.8°N, 82.42°W
Report Text: KSJS 251935Z AUTO 22005KT 10SM OVC030 19/10 A2998 RMK AO2 T01870099
Loading
Personal Weather Stations






























Interactive Weather Map
Tropical Storm Tracking
New forecast layout! Learn more

10-Day Weather Forecast

Advertisements
Track Severe Weather on mobile